sensor_id;sensor_type;location;lat;lon;timestamp;pressure;altitude;pressure_sealevel;temperature;humidity
14612;BME280;7392;52.078;11.650;2023-04-09T00:00:41;101956.84;;;5.12;100.00
14612;BME280;7392;52.078;11.650;2023-04-09T00:03:09;101954.06;;;5.08;100.00
14612;BME280;7392;52.078;11.650;2023-04-09T00:05:38;101961.78;;;5.03;100.00
14612;BME280;7392;52.078;11.650;2023-04-09T00:08:06;101957.09;;;4.96;100.00
14612;BME280;7392;52.078;11.650;2023-04-09T00:10:34;101960.44;;;4.92;100.00
14612;BME280;7392;52.078;11.650;2023-04-09T00:13:01;101960.34;;;4.89;100.00
14612;BME280;7392;52.078;11.650;2023-04-09T00:15:30;101960.16;;;4.84;100.00
14612;BME280;7392;52.078;11.650;2023-04-09T00:17:58;101950.31;;;4.80;100.00
14612;BME280;7392;52.078;11.650;2023-04-09T00:20:26;101951.09;;;4.77;100.00
14612;BME280;7392;52.078;11.650;2023-04-09T00:22:53;101953.66;;;4.76;100.00
14612;BME280;7392;52.078;11.650;2023-04-09T00:25:21;101952.66;;;4.72;100.00
14612;BME280;7392;52.078;11.650;2023-04-09T00:27:49;101956.88;;;4.68;100.00
14612;BME280;7392;52.078;11.650;2023-04-09T00:30:17;101962.09;;;4.67;100.00
14612;BME280;7392;52.078;11.650;2023-04-09T00:32:46;101961.13;;;4.65;100.00
14612;BME280;7392;52.078;11.650;2023-04-09T00:35:14;101953.16;;;4.63;100.00
14612;BME280;7392;52.078;11.650;2023-04-09T00:37:43;101966.19;;;4.60;100.00
14612;BME280;7392;52.078;11.650;2023-04-09T00:40:10;101959.13;;;4.59;100.00
14612;BME280;7392;52.078;11.650;2023-04-09T00:42:38;101967.03;;;4.59;100.00
14612;BME280;7392;52.078;11.650;2023-04-09T00:45:07;101969.59;;;4.58;100.00
14612;BME280;7392;52.078;11.650;2023-04-09T00:47:35;101969.59;;;4.58;100.00
14612;BME280;7392;52.078;11.650;2023-04-09T00:50:05;101966.06;;;4.57;100.00
14612;BME280;7392;52.078;11.650;2023-04-09T00:52:33;101969.59;;;4.58;100.00
14612;BME280;7392;52.078;11.650;2023-04-09T00:55:03;101965.25;;;4.58;100.00
14612;BME280;7392;52.078;11.650;2023-04-09T00:57:31;101971.31;;;4.57;100.00
14612;BME280;7392;52.078;11.650;2023-04-09T00:59:59;101967.88;;;4.58;100.00
14612;BME280;7392;52.078;11.650;2023-04-09T01:02:26;101966.06;;;4.57;100.00
14612;BME280;7392;52.078;11.650;2023-04-09T01:04:56;101956.50;;;4.59;100.00
14612;BME280;7392;52.078;11.650;2023-04-09T01:07:33;101962.69;;;4.60;100.00
14612;BME280;7392;52.078;11.650;2023-04-09T01:10:15;101969.84;;;4.64;100.00
14612;BME280;7392;52.078;11.650;2023-04-09T01:12:51;101970.81;;;4.66;100.00
14612;BME280;7392;52.078;11.650;2023-04-09T01:15:24;101973.50;;;4.67;100.00
14612;BME280;7392;52.078;11.650;2023-04-09T01:17:59;101976.28;;;4.71;100.00
14612;BME280;7392;52.078;11.650;2023-04-09T01:20:33;101978.09;;;4.72;100.00
14612;BME280;7392;52.078;11.650;2023-04-09T01:23:13;101975.53;;;4.75;100.00
14612;BME280;7392;52.078;11.650;2023-04-09T01:25:44;101981.81;;;4.77;100.00
14612;BME280;7392;52.078;11.650;2023-04-09T01:28:21;101978.38;;;4.79;100.00
14612;BME280;7392;52.078;11.650;2023-04-09T01:30:52;101976.69;;;4.81;100.00
14612;BME280;7392;52.078;11.650;2023-04-09T01:33:23;101973.31;;;4.84;100.00
14612;BME280;7392;52.078;11.650;2023-04-09T01:35:51;101973.31;;;4.84;100.00
14612;BME280;7392;52.078;11.650;2023-04-09T01:38:20;101975.22;;;4.88;100.00
14612;BME280;7392;52.078;11.650;2023-04-09T01:40:49;101980.53;;;4.90;100.00
14612;BME280;7392;52.078;11.650;2023-04-09T01:43:20;101972.78;;;4.93;100.00
14612;BME280;7392;52.078;11.650;2023-04-09T01:45:49;101971.97;;;4.94;100.00
14612;BME280;7392;52.078;11.650;2023-04-09T01:48:19;101974.63;;;4.95;100.00
14612;BME280;7392;52.078;11.650;2023-04-09T01:50:47;101977.31;;;4.97;100.00
14612;BME280;7392;52.078;11.650;2023-04-09T01:53:15;101984.41;;;4.98;100.00
14612;BME280;7392;52.078;11.650;2023-04-09T01:55:43;101986.22;;;4.99;100.00
14612;BME280;7392;52.078;11.650;2023-04-09T01:58:11;101989.00;;;5.03;100.00
14612;BME280;7392;52.078;11.650;2023-04-09T02:00:45;101981.16;;;5.05;100.00
14612;BME280;7392;52.078;11.650;2023-04-09T02:03:17;101982.13;;;5.07;100.00
14612;BME280;7392;52.078;11.650;2023-04-09T02:05:47;101987.44;;;5.09;100.00
14612;BME280;7392;52.078;11.650;2023-04-09T02:08:19;101991.91;;;5.10;100.00
14612;BME280;7392;52.078;11.650;2023-04-09T02:10:50;101983.13;;;5.11;100.00
14612;BME280;7392;52.078;11.650;2023-04-09T02:13:22;101987.66;;;5.13;100.00
14612;BME280;7392;52.078;11.650;2023-04-09T02:15:55;101987.72;;;5.15;100.00
14612;BME280;7392;52.078;11.650;2023-04-09T02:18:24;101990.41;;;5.16;100.00
14612;BME280;7392;52.078;11.650;2023-04-09T02:20:53;101993.09;;;5.18;100.00
14612;BME280;7392;52.078;11.650;2023-04-09T02:23:21;101990.53;;;5.19;100.00
14612;BME280;7392;52.078;11.650;2023-04-09T02:25:50;101989.59;;;5.19;100.00
14612;BME280;7392;52.078;11.650;2023-04-09T02:28:18;101995.81;;;5.19;100.00
14612;BME280;7392;52.078;11.650;2023-04-09T02:30:46;101999.31;;;5.20;100.00
14612;BME280;7392;52.078;11.650;2023-04-09T02:33:15;102002.03;;;5.21;100.00
14612;BME280;7392;52.078;11.650;2023-04-09T02:35:43;101998.44;;;5.19;100.00
14612;BME280;7392;52.078;11.650;2023-04-09T02:38:10;102000.22;;;5.20;100.00
14612;BME280;7392;52.078;11.650;2023-04-09T02:40:39;101994.00;;;5.18;100.00
14612;BME280;7392;52.078;11.650;2023-04-09T02:43:07;102001.97;;;5.20;100.00
14612;BME280;7392;52.078;11.650;2023-04-09T02:45:35;102002.78;;;5.19;100.00
14612;BME280;7392;52.078;11.650;2023-04-09T02:48:03;101994.00;;;5.18;100.00
14612;BME280;7392;52.078;11.650;2023-04-09T02:50:35;101994.00;;;5.18;100.00
14612;BME280;7392;52.078;11.650;2023-04-09T02:53:02;101995.75;;;5.18;100.00
14612;BME280;7392;52.078;11.650;2023-04-09T02:55:30;101993.09;;;5.18;100.00
14612;BME280;7392;52.078;11.650;2023-04-09T02:57:58;101997.50;;;5.19;100.00
14612;BME280;7392;52.078;11.650;2023-04-09T03:00:26;101989.59;;;5.19;100.00
14612;BME280;7392;52.078;11.650;2023-04-09T03:02:54;101986.09;;;5.18;100.00
14612;BME280;7392;52.078;11.650;2023-04-09T03:05:22;101988.72;;;5.18;100.00
14612;BME280;7392;52.078;11.650;2023-04-09T03:07:51;101982.56;;;5.18;100.00
14612;BME280;7392;52.078;11.650;2023-04-09T03:10:18;101983.38;;;5.17;100.00
14612;BME280;7392;52.078;11.650;2023-04-09T03:12:46;101985.19;;;5.18;100.00
14612;BME280;7392;52.078;11.650;2023-04-09T03:15:13;101980.75;;;5.17;100.00
14612;BME280;7392;52.078;11.650;2023-04-09T03:17:42;101975.41;;;5.15;100.00
14612;BME280;7392;52.078;11.650;2023-04-09T03:20:10;101983.38;;;5.17;100.00
14612;BME280;7392;52.078;11.650;2023-04-09T03:22:38;101985.97;;;5.15;100.00
14612;BME280;7392;52.078;11.650;2023-04-09T03:25:19;101976.31;;;5.16;100.00
14612;BME280;7392;52.078;11.650;2023-04-09T03:27:50;101978.94;;;5.16;100.00
14612;BME280;7392;52.078;11.650;2023-04-09T03:30:28;101979.81;;;5.15;100.00
14612;BME280;7392;52.078;11.650;2023-04-09T03:32:57;101972.72;;;5.14;100.00
14612;BME280;7392;52.078;11.650;2023-04-09T03:35:26;101974.47;;;5.13;100.00
14612;BME280;7392;52.078;11.650;2023-04-09T03:37:57;101979.69;;;5.12;100.00
14612;BME280;7392;52.078;11.650;2023-04-09T03:40:26;101979.63;;;5.10;100.00
14612;BME280;7392;52.078;11.650;2023-04-09T03:42:55;101981.34;;;5.10;100.00
14612;BME280;7392;52.078;11.650;2023-04-09T03:45:22;101974.28;;;5.09;100.00
14612;BME280;7392;52.078;11.650;2023-04-09T03:47:52;101969.88;;;5.08;100.00
14612;BME280;7392;52.078;11.650;2023-04-09T03:50:24;101973.38;;;5.08;100.00
14612;BME280;7392;52.078;11.650;2023-04-09T03:52:54;101975.97;;;5.06;100.00
14612;BME280;7392;52.078;11.650;2023-04-09T03:55:22;101977.72;;;5.06;100.00
14612;BME280;7392;52.078;11.650;2023-04-09T03:57:52;101977.72;;;5.06;100.00
14612;BME280;7392;52.078;11.650;2023-04-09T04:00:25;101977.78;;;5.08;100.00
14612;BME280;7392;52.078;11.650;2023-04-09T04:03:12;101976.78;;;5.05;100.00
14612;BME280;7392;52.078;11.650;2023-04-09T04:06:00;101971.50;;;5.04;100.00
14612;BME280;7392;52.078;11.650;2023-04-09T04:08:37;101980.28;;;5.04;100.00
14612;BME280;7392;52.078;11.650;2023-04-09T04:11:05;101976.69;;;5.02;100.00
14612;BME280;7392;52.078;11.650;2023-04-09T04:13:34;101974.06;;;5.02;100.00
14612;BME280;7392;52.078;11.650;2023-04-09T04:16:07;101975.78;;;5.02;100.00
14612;BME280;7392;52.078;11.650;2023-04-09T04:18:37;101978.41;;;5.02;100.00
14612;BME280;7392;52.078;11.650;2023-04-09T04:21:11;101974.00;;;5.01;100.00
14612;BME280;7392;52.078;11.650;2023-04-09T04:23:43;101980.97;;;5.00;100.00
14612;BME280;7392;52.078;11.650;2023-04-09T04:26:16;101983.59;;;5.00;100.00
14612;BME280;7392;52.078;11.650;2023-04-09T04:28:46;101995.06;;;5.01;100.00
14612;BME280;7392;52.078;11.650;2023-04-09T04:31:25;101991.47;;;4.99;100.00
14612;BME280;7392;52.078;11.650;2023-04-09T04:33:56;101997.56;;;4.98;100.00
14612;BME280;7392;52.078;11.650;2023-04-09T04:36:24;101994.88;;;4.96;100.00
14612;BME280;7392;52.078;11.650;2023-04-09T04:38:52;101995.66;;;4.94;100.00
14612;BME280;7392;52.078;11.650;2023-04-09T04:41:35;101993.78;;;4.91;100.00
14612;BME280;7392;52.078;11.650;2023-04-09T04:44:18;102003.44;;;4.91;100.00
14612;BME280;7392;52.078;11.650;2023-04-09T04:46:50;102003.44;;;4.91;100.00
14612;BME280;7392;52.078;11.650;2023-04-09T04:49:18;102002.47;;;4.89;100.00
14612;BME280;7392;52.078;11.650;2023-04-09T04:51:46;102005.09;;;4.89;100.00
14612;BME280;7392;52.078;11.650;2023-04-09T04:54:15;102005.84;;;4.86;100.00
14612;BME280;7392;52.078;11.650;2023-04-09T04:56:49;102008.56;;;4.87;100.00
14612;BME280;7392;52.078;11.650;2023-04-09T04:59:31;102012.00;;;4.86;100.00
14612;BME280;7392;52.078;11.650;2023-04-09T05:02:04;102009.38;;;4.86;100.00
14612;BME280;7392;52.078;11.650;2023-04-09T05:04:40;102011.19;;;4.87;100.00
14612;BME280;7392;52.078;11.650;2023-04-09T05:07:11;102012.00;;;4.86;100.00
14612;BME280;7392;52.078;11.650;2023-04-09T05:09:46;102014.66;;;4.86;100.00
14612;BME280;7392;52.078;11.650;2023-04-09T05:12:14;102011.13;;;4.86;100.00
14612;BME280;7392;52.078;11.650;2023-04-09T05:14:48;102019.03;;;4.86;100.00
14612;BME280;7392;52.078;11.650;2023-04-09T05:17:16;102017.28;;;4.86;100.00
14612;BME280;7392;52.078;11.650;2023-04-09T05:19:49;102012.81;;;4.84;100.00
14612;BME280;7392;52.078;11.650;2023-04-09T05:22:21;102020.69;;;4.84;100.00
14612;BME280;7392;52.078;11.650;2023-04-09T05:24:48;102018.06;;;4.84;100.00
14612;BME280;7392;52.078;11.650;2023-04-09T05:27:16;102021.59;;;4.84;100.00
14612;BME280;7392;52.078;11.650;2023-04-09T05:29:48;102015.50;;;4.85;100.00
14612;BME280;7392;52.078;11.650;2023-04-09T05:32:16;102016.38;;;4.86;100.00
14612;BME280;7392;52.078;11.650;2023-04-09T05:34:44;102012.88;;;4.85;100.00
14612;BME280;7392;52.078;11.650;2023-04-09T05:37:13;102028.81;;;4.89;100.00
14612;BME280;7392;52.078;11.650;2023-04-09T05:39:46;102022.69;;;4.90;100.00
14612;BME280;7392;52.078;11.650;2023-04-09T05:42:15;102018.38;;;4.92;100.00
14612;BME280;7392;52.078;11.650;2023-04-09T05:44:55;102022.00;;;4.94;100.00
14612;BME280;7392;52.078;11.650;2023-04-09T05:47:23;102019.53;;;4.98;100.00
14612;BME280;7392;52.078;11.650;2023-04-09T05:49:59;102022.28;;;5.01;100.00
14612;BME280;7392;52.078;11.650;2023-04-09T05:52:27;102022.41;;;5.04;100.00
14612;BME280;7392;52.078;11.650;2023-04-09T05:54:56;102030.44;;;5.08;100.00
14612;BME280;7392;52.078;11.650;2023-04-09T05:57:38;102018.22;;;5.10;100.00
14612;BME280;7392;52.078;11.650;2023-04-09T06:00:09;102026.38;;;5.16;100.00
14612;BME280;7392;52.078;11.650;2023-04-09T06:02:43;102027.34;;;5.18;100.00
14612;BME280;7392;52.078;11.650;2023-04-09T06:05:11;102027.44;;;5.21;100.00
14612;BME280;7392;52.078;11.650;2023-04-09T06:07:39;102024.06;;;5.23;100.00
14612;BME280;7392;52.078;11.650;2023-04-09T06:10:07;102023.31;;;5.28;100.00
14612;BME280;7392;52.078;11.650;2023-04-09T06:12:35;102025.13;;;5.29;100.00
14612;BME280;7392;52.078;11.650;2023-04-09T06:15:04;102023.50;;;5.32;100.00
14612;BME280;7392;52.078;11.650;2023-04-09T06:17:33;102024.53;;;5.36;100.00
14612;BME280;7392;52.078;11.650;2023-04-09T06:20:01;102021.13;;;5.38;100.00
14612;BME280;7392;52.078;11.650;2023-04-09T06:22:29;102018.66;;;5.43;100.00
14612;BME280;7392;52.078;11.650;2023-04-09T06:24:56;102038.09;;;5.45;100.00
14612;BME280;7392;52.078;11.650;2023-04-09T06:27:24;102039.09;;;5.49;100.00
14612;BME280;7392;52.078;11.650;2023-04-09T06:29:52;102036.47;;;5.49;100.00
14612;BME280;7392;52.078;11.650;2023-04-09T06:32:19;102029.44;;;5.49;100.00
14612;BME280;7392;52.078;11.650;2023-04-09T06:34:48;102030.47;;;5.53;100.00
14612;BME280;7392;52.078;11.650;2023-04-09T06:37:16;102041.19;;;5.57;100.00
14612;BME280;7392;52.078;11.650;2023-04-09T06:39:43;102037.88;;;5.63;100.00
14612;BME280;7392;52.078;11.650;2023-04-09T06:42:26;102049.44;;;5.67;100.00
14612;BME280;7392;52.078;11.650;2023-04-09T06:45:08;102050.47;;;5.70;100.00
14612;BME280;7392;52.078;11.650;2023-04-09T06:47:36;102054.97;;;5.73;100.00
14612;BME280;7392;52.078;11.650;2023-04-09T06:50:06;102048.06;;;5.76;100.00
14612;BME280;7392;52.078;11.650;2023-04-09T06:52:34;102049.13;;;5.81;100.00
14612;BME280;7392;52.078;11.650;2023-04-09T06:55:01;102042.38;;;5.88;100.00
14612;BME280;7392;52.078;11.650;2023-04-09T06:57:29;102040.78;;;5.93;100.00
14612;BME280;7392;52.078;11.650;2023-04-09T06:59:57;102047.19;;;5.98;100.00
14612;BME280;7392;52.078;11.650;2023-04-09T07:02:25;102047.34;;;6.03;100.00
14612;BME280;7392;52.078;11.650;2023-04-09T07:04:53;102050.09;;;6.06;100.00
14612;BME280;7392;52.078;11.650;2023-04-09T07:07:22;102052.13;;;6.13;100.00
14612;BME280;7392;52.078;11.650;2023-04-09T07:09:51;102052.38;;;6.21;100.00
14612;BME280;7392;52.078;11.650;2023-04-09T07:12:25;102045.72;;;6.31;100.00
14612;BME280;7392;52.078;11.650;2023-04-09T07:14:56;102048.66;;;6.40;100.00
14612;BME280;7392;52.078;11.650;2023-04-09T07:17:24;102045.25;;;6.43;100.00
14612;BME280;7392;52.078;11.650;2023-04-09T07:19:51;102045.44;;;6.49;100.00
14612;BME280;7392;52.078;11.650;2023-04-09T07:22:21;102043.03;;;6.55;100.00
14612;BME280;7392;52.078;11.650;2023-04-09T07:24:49;102044.94;;;6.59;100.00
14612;BME280;7392;52.078;11.650;2023-04-09T07:27:19;102045.91;;;6.61;100.00
14612;BME280;7392;52.078;11.650;2023-04-09T07:29:47;102045.91;;;6.61;100.00
14612;BME280;7392;52.078;11.650;2023-04-09T07:32:15;102047.63;;;6.61;100.00
14612;BME280;7392;52.078;11.650;2023-04-09T07:34:43;102048.53;;;6.61;100.00
14612;BME280;7392;52.078;11.650;2023-04-09T07:37:11;102047.63;;;6.61;100.00
14612;BME280;7392;52.078;11.650;2023-04-09T07:39:40;102044.84;;;6.56;100.00
14612;BME280;7392;52.078;11.650;2023-04-09T07:42:08;102050.13;;;6.56;100.00
14612;BME280;7392;52.078;11.650;2023-04-09T07:44:35;102052.72;;;6.54;100.00
14612;BME280;7392;52.078;11.650;2023-04-09T07:47:06;102055.34;;;6.54;100.00
14612;BME280;7392;52.078;11.650;2023-04-09T07:49:35;102056.34;;;6.58;100.00
14612;BME280;7392;52.078;11.650;2023-04-09T07:52:04;102053.88;;;6.63;100.00
14612;BME280;7392;52.078;11.650;2023-04-09T07:54:32;102053.06;;;6.65;100.00
14612;BME280;7392;52.078;11.650;2023-04-09T07:57:02;102047.97;;;6.70;100.00
14612;BME280;7392;52.078;11.650;2023-04-09T07:59:29;102056.13;;;6.78;100.00
14612;BME280;7392;52.078;11.650;2023-04-09T08:01:57;102051.22;;;6.88;100.00
14612;BME280;7392;52.078;11.650;2023-04-09T08:04:26;102055.88;;;6.96;100.00
14612;BME280;7392;52.078;11.650;2023-04-09T08:06:54;102056.09;;;7.03;100.00
14612;BME280;7392;52.078;11.650;2023-04-09T08:09:21;102061.78;;;7.16;100.00
14612;BME280;7392;52.078;11.650;2023-04-09T08:11:49;102057.88;;;7.30;100.00
14612;BME280;7392;52.078;11.650;2023-04-09T08:14:18;102058.25;;;7.42;100.00
14612;BME280;7392;52.078;11.650;2023-04-09T08:16:47;102048.88;;;7.52;100.00
14612;BME280;7392;52.078;11.650;2023-04-09T08:19:16;102055.41;;;7.65;100.00
14612;BME280;7392;52.078;11.650;2023-04-09T08:21:44;102056.28;;;7.64;99.64
14612;BME280;7392;52.078;11.650;2023-04-09T08:24:14;102052.03;;;7.69;99.70
14612;BME280;7392;52.078;11.650;2023-04-09T08:26:42;102059.69;;;7.90;100.00
14612;BME280;7392;52.078;11.650;2023-04-09T08:29:11;102054.91;;;8.07;100.00
14612;BME280;7392;52.078;11.650;2023-04-09T08:31:40;102056.28;;;8.24;99.48
14612;BME280;7392;52.078;11.650;2023-04-09T08:34:08;102048.72;;;8.38;98.86
14612;BME280;7392;52.078;11.650;2023-04-09T08:36:36;102048.81;;;8.41;96.32
14612;BME280;7392;52.078;11.650;2023-04-09T08:39:03;102041.16;;;8.51;95.59
14612;BME280;7392;52.078;11.650;2023-04-09T08:41:31;102043.16;;;8.59;94.71
14612;BME280;7392;52.078;11.650;2023-04-09T08:43:59;102048.53;;;8.64;92.93
14612;BME280;7392;52.078;11.650;2023-04-09T08:46:27;102046.25;;;8.76;92.42
14612;BME280;7392;52.078;11.650;2023-04-09T08:48:56;102054.41;;;8.86;90.42
14612;BME280;7392;52.078;11.650;2023-04-09T08:51:24;102049.41;;;8.98;89.91
14612;BME280;7392;52.078;11.650;2023-04-09T08:53:55;102053.38;;;9.14;89.85
14612;BME280;7392;52.078;11.650;2023-04-09T08:56:24;102054.50;;;9.25;89.01
14612;BME280;7392;52.078;11.650;2023-04-09T08:58:53;102050.22;;;9.30;86.63
14612;BME280;7392;52.078;11.650;2023-04-09T09:03:11;102050.31;;;9.35;86.89
14612;BME280;7392;52.078;11.650;2023-04-09T09:05:42;102044.75;;;9.62;87.80
14612;BME280;7392;52.078;11.650;2023-04-09T09:08:22;102046.22;;;9.89;86.99
14612;BME280;7392;52.078;11.650;2023-04-09T09:10:51;102040.47;;;10.10;86.43
14612;BME280;7392;52.078;11.650;2023-04-09T09:13:22;102035.81;;;10.42;87.37
14612;BME280;7392;52.078;11.650;2023-04-09T09:15:53;102041.63;;;10.70;87.42
14612;BME280;7392;52.078;11.650;2023-04-09T09:18:37;102038.47;;;10.93;85.23
14612;BME280;7392;52.078;11.650;2023-04-09T09:21:09;102038.72;;;11.08;83.03
14612;BME280;7392;52.078;11.650;2023-04-09T09:23:37;102042.53;;;11.24;82.30
14612;BME280;7392;52.078;11.650;2023-04-09T09:26:11;102030.38;;;11.41;81.57
14612;BME280;7392;52.078;11.650;2023-04-09T09:28:40;102033.09;;;11.48;78.43
14612;BME280;7392;52.078;11.650;2023-04-09T09:31:08;102033.25;;;11.57;77.37
14612;BME280;7392;52.078;11.650;2023-04-09T09:33:38;102040.59;;;11.75;77.68
14612;BME280;7392;52.078;11.650;2023-04-09T09:36:06;102039.13;;;11.94;77.72
14612;BME280;7392;52.078;11.650;2023-04-09T09:38:49;102041.84;;;12.00;74.17
14612;BME280;7392;52.078;11.650;2023-04-09T09:41:20;102049.97;;;12.09;72.70
14612;BME280;7392;52.078;11.650;2023-04-09T09:43:47;102045.59;;;12.18;71.37
14612;BME280;7392;52.078;11.650;2023-04-09T09:46:16;102043.09;;;12.33;71.14
14612;BME280;7392;52.078;11.650;2023-04-09T09:48:45;102042.34;;;12.45;70.11
14612;BME280;7392;52.078;11.650;2023-04-09T09:51:14;102044.19;;;12.50;69.00
14612;BME280;7392;52.078;11.650;2023-04-09T09:53:44;102036.34;;;12.66;69.42
14612;BME280;7392;52.078;11.650;2023-04-09T09:56:18;102035.69;;;12.95;70.26
14612;BME280;7392;52.078;11.650;2023-04-09T09:58:51;102036.75;;;13.12;69.22
14612;BME280;7392;52.078;11.650;2023-04-09T10:01:20;102039.47;;;13.23;67.32
14612;BME280;7392;52.078;11.650;2023-04-09T10:03:51;102046.66;;;13.30;65.66
14612;BME280;7392;52.078;11.650;2023-04-09T10:06:22;102036.91;;;13.34;65.50
14612;BME280;7392;52.078;11.650;2023-04-09T10:08:51;102036.06;;;13.42;65.12
14612;BME280;7392;52.078;11.650;2023-04-09T10:11:19;102030.00;;;13.62;66.15
14612;BME280;7392;52.078;11.650;2023-04-09T10:13:49;102025.56;;;13.65;65.17
14612;BME280;7392;52.078;11.650;2023-04-09T10:16:20;102035.44;;;13.85;66.27
14612;BME280;7392;52.078;11.650;2023-04-09T10:18:49;102030.16;;;14.02;66.05
14612;BME280;7392;52.078;11.650;2023-04-09T10:21:27;102029.34;;;14.18;65.08
14612;BME280;7392;52.078;11.650;2023-04-09T10:23:57;102017.84;;;14.49;66.14
14612;BME280;7392;52.078;11.650;2023-04-09T10:26:25;102015.22;;;14.78;67.02
14612;BME280;7392;52.078;11.650;2023-04-09T10:29:03;102014.34;;;15.08;66.59
14612;BME280;7392;52.078;11.650;2023-04-09T10:31:50;102013.41;;;15.06;62.51
14612;BME280;7392;52.078;11.650;2023-04-09T10:34:20;102012.56;;;14.98;61.36
14612;BME280;7392;52.078;11.650;2023-04-09T10:36:51;102013.44;;;15.19;63.05
14612;BME280;7392;52.078;11.650;2023-04-09T10:39:25;102011.59;;;15.33;61.74
14612;BME280;7392;52.078;11.650;2023-04-09T10:41:53;102007.13;;;15.43;62.11
14612;BME280;7392;52.078;11.650;2023-04-09T10:44:22;102010.69;;;15.49;61.21
14612;BME280;7392;52.078;11.650;2023-04-09T10:46:53;101996.38;;;15.53;61.42
14612;BME280;7392;52.078;11.650;2023-04-09T10:49:23;101999.06;;;15.58;60.11
14612;BME280;7392;52.078;11.650;2023-04-09T10:51:54;102002.63;;;15.52;59.45
14612;BME280;7392;52.078;11.650;2023-04-09T10:54:41;102007.97;;;15.60;60.98
14612;BME280;7392;52.078;11.650;2023-04-09T10:57:16;102007.03;;;15.70;60.01
14612;BME280;7392;52.078;11.650;2023-04-09T10:59:45;101994.53;;;15.79;60.13
14612;BME280;7392;52.078;11.650;2023-04-09T11:02:40;101989.97;;;16.04;61.58
14612;BME280;7392;52.078;11.650;2023-04-09T11:05:18;101991.66;;;16.20;59.76
14612;BME280;7392;52.078;11.650;2023-04-09T11:07:53;101993.44;;;16.24;58.92
14612;BME280;7392;52.078;11.650;2023-04-09T11:10:23;101988.00;;;16.35;59.33
14612;BME280;7392;52.078;11.650;2023-04-09T11:12:52;101992.41;;;16.42;58.59
14612;BME280;7392;52.078;11.650;2023-04-09T11:15:20;101987.03;;;16.42;57.95
14612;BME280;7392;52.078;11.650;2023-04-09T11:17:48;101986.09;;;16.48;57.86
14612;BME280;7392;52.078;11.650;2023-04-09T11:20:19;101983.22;;;16.76;59.74
14612;BME280;7392;52.078;11.650;2023-04-09T11:22:49;101976.78;;;17.01;58.79
14612;BME280;7392;52.078;11.650;2023-04-09T11:25:18;101973.19;;;16.99;56.88
14612;BME280;7392;52.078;11.650;2023-04-09T11:27:46;101973.19;;;16.99;55.72
14612;BME280;7392;52.078;11.650;2023-04-09T11:30:14;101970.50;;;16.99;55.08
14612;BME280;7392;52.078;11.650;2023-04-09T11:32:42;101969.66;;;16.94;54.80
14612;BME280;7392;52.078;11.650;2023-04-09T11:35:11;101957.06;;;17.01;55.81
14612;BME280;7392;52.078;11.650;2023-04-09T11:37:40;101963.03;;;17.31;58.05
14612;BME280;7392;52.078;11.650;2023-04-09T11:40:15;101964.91;;;17.23;54.54
14612;BME280;7392;52.078;11.650;2023-04-09T11:42:43;101960.44;;;17.22;55.55
14612;BME280;7392;52.078;11.650;2023-04-09T11:45:11;101958.47;;;17.39;56.44
14612;BME280;7392;52.078;11.650;2023-04-09T11:47:40;101948.22;;;17.72;58.13
14612;BME280;7392;52.078;11.650;2023-04-09T11:50:09;101950.53;;;18.01;58.00
14612;BME280;7392;52.078;11.650;2023-04-09T11:52:37;101951.16;;;18.20;56.30
14612;BME280;7392;52.078;11.650;2023-04-09T11:55:06;101948.28;;;18.32;56.30
14612;BME280;7392;52.078;11.650;2023-04-09T11:57:41;101949.66;;;18.58;57.40
14612;BME280;7392;52.078;11.650;2023-04-09T12:00:14;101950.28;;;18.76;55.73
14612;BME280;7392;52.078;11.650;2023-04-09T12:02:43;101945.75;;;18.78;54.16
14612;BME280;7392;52.078;11.650;2023-04-09T12:05:20;101951.81;;;18.91;53.70
14612;BME280;7392;52.078;11.650;2023-04-09T12:07:49;101950.91;;;18.93;53.43
14612;BME280;7392;52.078;11.650;2023-04-09T12:10:27;101951.94;;;18.86;51.56
14612;BME280;7392;52.078;11.650;2023-04-09T12:13:02;101950.94;;;18.92;49.67
14612;BME280;7392;52.078;11.650;2023-04-09T12:15:32;101946.56;;;18.86;50.53
14612;BME280;7392;52.078;11.650;2023-04-09T12:18:00;101947.59;;;18.76;49.32
14612;BME280;7392;52.078;11.650;2023-04-09T12:20:30;101944.75;;;18.86;50.41
14612;BME280;7392;52.078;11.650;2023-04-09T12:22:59;101948.44;;;18.78;49.67
14612;BME280;7392;52.078;11.650;2023-04-09T12:25:29;101945.72;;;18.81;50.60
14612;BME280;7392;52.078;11.650;2023-04-09T12:27:57;101939.50;;;18.77;50.26
14612;BME280;7392;52.078;11.650;2023-04-09T12:30:26;101945.66;;;18.84;49.06
14612;BME280;7392;52.078;11.650;2023-04-09T12:32:54;101942.25;;;18.73;47.43
14612;BME280;7392;52.078;11.650;2023-04-09T12:35:22;101937.69;;;18.78;48.16
14612;BME280;7392;52.078;11.650;2023-04-09T12:37:50;101933.88;;;18.93;49.35
14612;BME280;7392;52.078;11.650;2023-04-09T12:40:19;101929.00;;;19.13;50.11
14612;BME280;7392;52.078;11.650;2023-04-09T12:42:49;101934.56;;;19.02;47.61
14612;BME280;7392;52.078;11.650;2023-04-09T12:45:18;101934.38;;;19.13;48.49
14612;BME280;7392;52.078;11.650;2023-04-09T12:47:48;101924.28;;;19.24;49.00
14612;BME280;7392;52.078;11.650;2023-04-09T12:50:16;101922.97;;;19.46;49.23
14612;BME280;7392;52.078;11.650;2023-04-09T12:52:44;101927.28;;;19.54;47.92
14612;BME280;7392;52.078;11.650;2023-04-09T12:55:13;101922.72;;;19.56;46.82
14612;BME280;7392;52.078;11.650;2023-04-09T12:57:42;101924.47;;;19.59;47.32
14612;BME280;7392;52.078;11.650;2023-04-09T13:00:11;101915.16;;;19.74;47.68
14612;BME280;7392;52.078;11.650;2023-04-09T13:02:39;101917.91;;;19.71;46.23
14612;BME280;7392;52.078;11.650;2023-04-09T13:05:10;101909.56;;;19.85;47.10
14612;BME280;7392;52.078;11.650;2023-04-09T13:07:38;101911.66;;;20.11;48.71